Terminal Aerodrome Forecast
Issued by NWS Albany, NY

Home | Current Version | Previous Version | Text Only | Print | Product List | Glossary On
Versions: 1 2 3 4 5 6 7 8 9 10 11 12 13 14 15 16 17 18 19 20
553
FTUS41 KALY 211721
TAFGFL
TAF
KGFL 211721Z 2118/2218 VRB03KT P6SM FEW035 BKN150
     FM212100 VRB03KT P6SM BKN025
     FM212200 VRB03KT P6SM BKN150
     FM220200 00000KT P6SM BKN025
     FM220500 00000KT P6SM BKN020 PROB30 2216/2217 3/4SM -FZDZ
      OVC007=

USA.gov is the U.S. government's official web portal to all federal, state and local government web resources and services.